Time;durP1;ratioP1;P1;durP2;ratioP2;P2;SDS_P1;SDS_P2;PMS_P1;PMS_P2;Temp;Humidity;BMP_temperature;BMP_pressure;BME280_temperature;BME280_humidity;BME280_pressure;Samples;Min_cycle;Max_cycle;Signal;HPM_P1;HPM_P2
2022/10/28 07:01:05;;;;;;;;;7.75;6.00;;;;;17.59;77.24;101411.47;5904863;23;47985;-69
2022/10/28 07:03:34;;;;;;;;;6.50;6.50;;;;;18.05;77.00;101485.97;4954008;28;49712;-73
2022/10/28 07:06:00;;;;;;;;;7.00;6.75;;;;;18.09;77.10;101478.88;4954768;28;49654;-70
2022/10/28 07:08:26;;;;;;;;;8.50;8.50;;;;;18.02;76.83;101477.97;4959750;28;50061;-73
2022/10/28 07:10:56;;;;;;;;;10.50;8.25;;;;;18.00;76.68;101485.06;4933626;28;49972;-70
2022/10/28 07:13:23;;;;;;;;;9.00;9.00;;;;;17.86;77.02;101454.94;4951028;28;50064;-69
2022/10/28 07:15:56;;;;;;;;;10.00;8.00;;;;;17.45;76.79;101390.19;4952702;28;49930;-71
2022/10/28 07:18:23;;;;;;;;;8.50;7.25;;;;;18.11;76.50;101499.25;4950909;28;49780;-74
2022/10/28 07:20:48;;;;;;;;;8.00;8.00;;;;;18.08;76.30;101482.41;4932219;28;49908;-71
2022/10/28 07:23:13;;;;;;;;;6.50;6.00;;;;;18.05;76.14;101485.06;4932255;28;50118;-78
2022/10/28 07:25:39;;;;;;;;;7.25;7.25;;;;;18.32;76.12;101519.63;4932987;28;50062;-71
2022/10/28 07:28:04;;;;;;;;;10.75;10.75;;;;;18.22;75.82;101500.13;4934691;28;50291;-70
2022/10/28 07:30:30;;;;;;;;;11.00;6.50;;;;;18.23;74.65;101477.09;4932110;28;49812;-72
2022/10/28 07:32:59;;;;;;;;;11.75;6.75;;;;;18.49;74.16;101515.22;4932602;28;49661;-72
2022/10/28 07:35:28;;;;;;;;;7.00;6.00;;;;;18.56;74.00;101513.47;4932483;28;50028;-70
2022/10/28 07:37:54;;;;;;;;;8.25;7.25;;;;;18.46;72.53;101464.72;4931824;28;51782;-75
2022/10/28 07:40:20;;;;;;;;;5.50;5.50;;;;;18.62;71.71;101478.88;4931682;28;55910;-73
2022/10/28 07:42:46;;;;;;;;;8.50;7.50;;;;;18.73;71.07;101477.16;4914825;28;49883;-71
2022/10/28 07:45:11;;;;;;;;;7.75;7.75;;;;;18.99;70.10;101502.81;4932728;28;49899;-74
2022/10/28 07:47:37;;;;;;;;;7.75;7.75;;;;;19.19;69.93;101521.38;4935458;28;49590;-71
2022/10/28 07:50:05;;;;;;;;;9.50;9.50;;;;;19.35;68.95;101524.00;4935645;28;49785;-78
2022/10/28 07:52:32;;;;;;;;;6.25;6.25;;;;;19.46;68.85;101526.63;4935672;28;49861;-71
2022/10/28 07:54:57;;;;;;;;;7.50;6.25;;;;;19.62;68.36;101548.81;4935538;28;49999;-77
2022/10/28 07:57:22;;;;;;;;;6.50;5.00;;;;;19.65;67.80;101528.34;4935151;28;49804;-71
2022/10/28 07:59:48;;;;;;;;;8.50;8.00;;;;;19.56;67.39;101488.44;4934895;28;58350;-70
2022/10/28 08:02:16;;;;;;;;;8.00;7.25;;;;;19.76;66.81;101508.78;4935034;28;50024;-70
2022/10/28 08:04:41;;;;;;;;;10.50;7.50;;;;;19.86;66.56;101506.06;4935498;28;49806;-70
2022/10/28 08:07:07;;;;;;;;;11.00;8.50;;;;;20.18;66.50;101544.97;4935105;28;49977;-70
2022/10/28 08:09:32;;;;;;;;;7.00;5.50;;;;;20.09;66.17;101524.59;4940631;28;55775;-71
2022/10/28 08:11:57;;;;;;;;;8.00;6.00;;;;;20.29;66.07;101554.66;4945623;28;49885;-71
2022/10/28 08:14:23;;;;;;;;;5.25;4.50;;;;;20.13;65.42;101538.78;4935230;28;49895;-81
2022/10/28 08:16:48;;;;;;;;;7.25;7.00;;;;;20.19;66.01;101536.06;4935317;28;51549;-73
2022/10/28 08:19:13;;;;;;;;;7.25;6.25;;;;;20.30;65.68;101552.88;4942162;28;49744;-71
2022/10/28 08:21:39;;;;;;;;;12.25;7.00;;;;;20.32;65.61;101553.75;4935124;28;49808;-78
2022/10/28 08:24:04;;;;;;;;;5.50;5.50;;;;;19.75;65.91;101456.38;4945290;28;49641;-79
2022/10/28 08:26:30;;;;;;;;;7.75;6.00;;;;;20.22;65.65;101552.94;4947742;28;49649;-77
2022/10/28 08:29:00;;;;;;;;;6.50;5.75;;;;;20.38;65.72;101576.84;4940260;28;51351;-76
2022/10/28 08:31:25;;;;;;;;;9.00;6.00;;;;;20.38;65.71;101588.38;4945729;28;49834;-77
2022/10/28 08:33:50;;;;;;;;;10.25;6.25;;;;;20.43;65.63;101577.72;4945517;28;49769;-69
2022/10/28 08:36:16;;;;;;;;;6.00;6.00;;;;;20.26;65.97;101548.44;4934246;28;71605;-76
2022/10/28 08:38:42;;;;;;;;;8.75;8.50;;;;;20.49;65.83;101589.22;4935020;28;49733;-73
2022/10/28 08:41:23;;;;;;;;;6.25;6.25;;;;;20.51;66.11;101586.53;4918392;28;49830;-75
2022/10/28 08:44:23;;;;;;;;;6.75;5.75;;;;;19.19;66.00;101367.88;4945260;28;49846;-74
2022/10/28 08:47:06;;;;;;;;;8.75;6.75;;;;;20.60;65.65;101601.59;4937877;28;49897;-73
2022/10/28 08:49:38;;;;;;;;;7.00;5.25;;;;;20.47;65.39;101608.81;4948692;28;51317;-77
2022/10/28 08:52:21;;;;;;;;;13.25;5.75;;;;;20.72;65.72;101617.50;4937670;28;49843;-76
2022/10/28 08:55:08;;;;;;;;;11.00;8.75;;;;;20.79;65.19;101614.78;4948512;28;49964;-82
2022/10/28 08:57:40;;;;;;;;;14.50;11.25;;;;;20.84;65.29;101615.66;4952830;28;50882;-76
2022/10/28 09:00:12;;;;;;;;;7.75;6.50;;;;;20.91;65.10;101616.47;4934854;28;49832;-74
2022/10/28 09:03:13;;;;;;;;;6.50;6.50;;;;;20.74;64.88;101586.38;4946823;28;49771;-74
2022/10/28 09:05:41;;;;;;;;;8.00;5.25;;;;;20.93;64.68;101614.66;4934513;28;50674;-72
2022/10/28 09:08:27;;;;;;;;;9.50;8.50;;;;;20.86;64.24;101600.50;4931448;28;50593;-73
2022/10/28 09:11:04;;;;;;;;;15.50;7.25;;;;;21.04;64.47;101612.81;4940263;28;49967;-72
2022/10/28 09:13:57;;;;;;;;;7.25;5.75;;;;;20.96;64.37;101598.66;4934167;28;49765;-72
2022/10/28 09:16:37;;;;;;;;;9.75;8.25;;;;;21.15;64.42;101636.75;4934314;28;49904;-74
2022/10/28 09:19:23;;;;;;;;;12.00;11.00;;;;;20.86;64.34;101595.19;4946560;28;51001;-73
2022/10/28 09:22:18;;;;;;;;;8.50;7.75;;;;;21.12;64.34;101626.06;4934202;28;49745;-73
2022/10/28 09:25:02;;;;;;;;;12.25;11.00;;;;;21.19;64.04;101643.81;4934011;28;49984;-74
2022/10/28 09:27:30;;;;;;;;;7.75;7.75;;;;;21.25;64.52;101645.56;4948317;28;50053;-73
2022/10/28 09:30:30;;;;;;;;;8.50;7.25;;;;;21.22;64.22;101653.56;4952245;28;50275;-74
2022/10/28 09:33:05;;;;;;;;;10.50;7.25;;;;;21.17;63.87;101652.75;4952360;28;49729;-74
2022/10/28 09:35:37;;;;;;;;;9.75;9.75;;;;;21.26;63.90;101650.91;4935100;28;49877;-74
2022/10/28 09:38:22;;;;;;;;;8.25;7.25;;;;;21.31;64.19;101665.09;4952942;28;49965;-74
2022/10/28 09:41:17;;;;;;;;;10.75;7.25;;;;;20.09;64.42;101467.72;4936767;28;50521;-74
2022/10/28 09:44:00;;;;;;;;;7.00;5.00;;;;;21.40;64.29;101657.00;4929548;28;49808;-75
2022/10/28 09:46:29;;;;;;;;;9.75;8.25;;;;;20.74;64.22;101539.22;4938601;28;49961;-75
2022/10/28 09:49:02;;;;;;;;;5.75;5.75;;;;;20.80;64.34;101546.31;4950550;28;50640;-74
2022/10/28 09:51:36;;;;;;;;;9.50;7.75;;;;;21.52;64.47;101656.03;4934164;28;50521;-73
2022/10/28 09:54:02;;;;;;;;;9.50;6.75;;;;;21.44;64.34;101631.16;4936979;28;50320;-78
2022/10/28 09:56:29;;;;;;;;;9.50;7.75;;;;;21.34;64.04;101611.69;4949716;28;49780;-72
2022/10/28 09:59:00;;;;;;;;;13.00;12.25;;;;;21.56;64.10;101639.03;4945253;28;49749;-73
2022/10/28 10:01:32;;;;;;;;;9.00;8.25;;;;;21.47;64.02;101619.56;4947494;28;50073;-79
2022/10/28 10:03:58;;;;;;;;;8.25;6.50;;;;;21.84;63.71;101692.19;4947221;28;50878;-80
2022/10/28 10:06:33;;;;;;;;;13.75;8.75;;;;;20.98;63.78;101515.88;4935351;28;49657;-78
2022/10/28 10:08:59;;;;;;;;;8.25;8.00;;;;;21.91;63.92;101680.53;4940798;28;49687;-78
2022/10/28 10:11:29;;;;;;;;;8.50;6.75;;;;;21.93;63.91;101676.06;4935438;28;49767;-74
2022/10/28 10:13:57;;;;;;;;;7.75;7.00;;;;;21.13;63.56;101559.34;4949490;28;49704;-76
2022/10/28 10:16:32;;;;;;;;;7.75;7.00;;;;;20.90;64.25;101507.94;4960580;28;49548;-75
2022/10/28 10:19:01;;;;;;;;;10.00;7.75;;;;;20.49;63.58;101447.00;4962292;28;49476;-76
2022/10/28 10:21:41;;;;;;;;;7.00;4.25;;;;;21.64;63.68;101633.63;4940175;28;49941;-73
2022/10/28 10:24:31;;;;;;;;;10.50;8.75;;;;;21.77;63.88;101659.28;4945188;28;50113;-74
2022/10/28 10:27:09;;;;;;;;;6.75;6.00;;;;;21.77;63.48;101675.34;4924825;28;49818;-77
2022/10/28 10:29:35;;;;;;;;;8.00;8.00;;;;;21.88;63.34;101686.78;4952115;28;50064;-78
2022/10/28 10:32:05;;;;;;;;;8.50;7.00;;;;;22.04;63.67;101700.88;4951524;28;49920;-79
2022/10/28 10:34:32;;;;;;;;;7.50;6.25;;;;;21.46;63.63;101586.63;4951574;28;49749;-75
2022/10/28 10:36:58;;;;;;;;;6.75;6.75;;;;;22.09;63.67;101696.38;4951870;28;50112;-71
2022/10/28 10:39:34;;;;;;;;;9.75;7.75;;;;;21.87;63.44;101658.28;4951733;28;49967;-73
2022/10/28 10:41:59;;;;;;;;;8.25;7.50;;;;;22.08;63.22;101696.41;4951397;28;49726;-69
2022/10/28 10:44:33;;;;;;;;;15.25;11.50;;;;;22.14;63.96;101699.00;4951558;28;49767;-70
2022/10/28 10:46:58;;;;;;;;;12.75;7.50;;;;;22.14;63.77;101697.22;4932955;28;49889;-76
2022/10/28 10:49:24;;;;;;;;;8.75;7.00;;;;;22.15;63.77;101709.69;4933144;28;49752;-72
2022/10/28 10:51:51;;;;;;;;;7.00;7.00;;;;;22.19;63.50;101711.41;4933621;28;49899;-80
2022/10/28 10:54:18;;;;;;;;;8.00;8.00;;;;;22.24;64.08;101716.72;4935503;28;50061;-77
2022/10/28 10:56:43;;;;;;;;;8.75;8.75;;;;;21.56;64.02;101587.41;4935269;28;50002;-78
2022/10/28 10:59:23;;;;;;;;;13.75;10.25;;;;;20.83;63.57;101463.53;4935603;28;49781;-81
2022/10/28 11:01:49;;;;;;;;;11.00;8.00;;;;;21.57;63.61;101626.56;4947897;28;49779;-79
2022/10/28 11:04:17;;;;;;;;;8.50;8.50;;;;;21.47;64.02;101574.13;4951210;28;49708;-79
2022/10/28 11:06:47;;;;;;;;;10.25;9.00;;;;;21.16;63.93;101515.69;4944408;28;49887;-82
2022/10/28 11:09:30;;;;;;;;;11.50;10.25;;;;;22.14;63.78;101686.53;4933141;28;49837;-80
2022/10/28 11:11:56;;;;;;;;;11.75;8.00;;;;;22.48;63.68;101727.09;4932698;28;50709;-79
2022/10/28 11:14:31;;;;;;;;;11.00;10.25;;;;;22.50;63.36;101751.19;4935641;28;49660;-80
2022/10/28 11:16:58;;;;;;;;;11.75;9.00;;;;;22.00;63.56;101670.63;4934304;28;49858;-79
2022/10/28 11:19:32;;;;;;;;;9.75;8.50;;;;;22.60;63.29;101747.47;4932622;28;49813;-79
2022/10/28 11:22:20;;;;;;;;;11.75;11.00;;;;;22.34;63.61;101720.16;4934868;28;50941;-78
2022/10/28 11:25:08;;;;;;;;;8.25;7.00;;;;;22.70;63.65;101762.50;4946979;28;49941;-76
2022/10/28 11:27:46;;;;;;;;;7.00;6.00;;;;;22.74;62.68;101749.94;4951039;28;50483;-76
2022/10/28 11:30:21;;;;;;;;;10.25;8.00;;;;;22.59;62.97;101731.44;4950800;28;49761;-79
2022/10/28 11:33:11;;;;;;;;;13.00;9.00;;;;;22.78;63.49;101749.91;4957176;28;50868;-75
2022/10/28 11:35:46;;;;;;;;;10.00;8.75;;;;;22.82;63.39;101742.69;4949756;28;50270;-76
2022/10/28 11:38:42;;;;;;;;;7.00;7.00;;;;;22.83;63.22;101742.69;4948878;28;50069;-75
2022/10/28 11:41:29;;;;;;;;;8.25;8.25;;;;;22.82;62.89;101746.25;4931133;28;50085;-74
2022/10/28 11:43:56;;;;;;;;;10.50;9.00;;;;;22.23;62.95;101656.09;4913143;28;50791;-76
2022/10/28 11:46:43;;;;;;;;;8.25;8.25;;;;;22.73;63.15;101759.78;4914367;28;49641;-77
2022/10/28 11:49:49;;;;;;;;;12.25;11.50;;;;;21.35;63.49;101535.09;4932185;28;49805;-77
2022/10/28 11:52:39;;;;;;;;;11.00;9.50;;;;;22.85;63.78;101740.00;4944283;28;49660;-75
2022/10/28 11:55:20;;;;;;;;;7.00;7.00;;;;;22.88;63.27;101742.66;4940718;28;49950;-78
2022/10/28 11:58:04;;;;;;;;;8.50;6.00;;;;;22.91;63.42;101747.06;4948318;28;50335;-79
2022/10/28 12:00:42;;;;;;;;;13.75;10.50;;;;;22.92;62.80;101738.13;4949361;28;49877;-78
2022/10/28 12:03:52;;;;;;;;;7.25;7.00;;;;;22.90;62.79;101746.19;4950020;28;50153;-77
2022/10/28 12:06:36;;;;;;;;;8.00;7.75;;;;;22.94;63.19;101747.03;4949743;28;50965;-79
2022/10/28 12:09:17;;;;;;;;;9.00;8.00;;;;;22.96;62.73;101739.84;4953838;28;49728;-76
2022/10/28 12:11:45;;;;;;;;;11.25;8.00;;;;;22.94;63.10;101741.66;4950879;28;49982;-72
2022/10/28 12:14:49;;;;;;;;;7.50;6.75;;;;;22.87;63.65;101714.09;4949964;28;50300;-74
2022/10/28 12:17:28;;;;;;;;;10.75;8.50;;;;;23.01;63.65;101732.63;4950103;28;50819;-73
2022/10/28 12:20:15;;;;;;;;;13.00;10.75;;;;;22.91;64.04;101721.19;4954849;28;50105;-74
2022/10/28 12:22:57;;;;;;;;;8.25;7.50;;;;;23.06;63.84;101742.34;4962053;28;49664;-74
2022/10/28 12:25:29;;;;;;;;;6.00;6.00;;;;;23.02;63.46;101735.28;4937255;28;49660;-75
2022/10/28 12:28:00;;;;;;;;;12.00;11.25;;;;;23.08;63.70;101747.72;4949823;28;49750;-77
2022/10/28 12:30:36;;;;;;;;;12.00;10.00;;;;;22.73;63.46;101690.19;4941510;28;49732;-76
2022/10/28 12:33:22;;;;;;;;;7.25;6.50;;;;;23.05;63.70;101737.91;4964220;28;50046;-74
2022/10/28 12:36:18;;;;;;;;;12.25;9.50;;;;;23.17;63.41;101739.53;4940480;28;49914;-77
2022/10/28 12:38:50;;;;;;;;;9.00;9.00;;;;;23.21;63.72;101741.25;4958627;28;50306;-75
2022/10/28 12:41:22;;;;;;;;;9.75;7.75;;;;;23.24;63.44;101741.19;4965553;28;49818;-77
2022/10/28 12:44:12;;;;;;;;;11.25;7.50;;;;;23.17;63.31;101726.16;4954972;28;49909;-77
2022/10/28 12:46:47;;;;;;;;;7.00;6.00;;;;;23.32;63.20;101733.03;4953421;28;49879;-76
2022/10/28 12:49:22;;;;;;;;;8.50;8.50;;;;;23.09;63.06;101699.47;4953023;28;51100;-74
2022/10/28 12:51:49;;;;;;;;;8.75;7.50;;;;;23.21;63.48;101706.41;4937730;28;49777;-75
2022/10/28 12:54:29;;;;;;;;;9.00;8.00;;;;;23.41;63.32;101731.09;4960726;28;50081;-75
2022/10/28 12:57:12;;;;;;;;;12.50;8.25;;;;;23.33;63.11;101708.88;4956631;28;49642;-76
2022/10/28 12:59:49;;;;;;;;;11.25;9.25;;;;;22.93;63.18;101641.72;4957102;28;51258;-76
2022/10/28 13:02:29;;;;;;;;;9.25;8.25;;;;;23.55;63.29;101728.19;4966854;28;49513;-77
2022/10/28 13:04:55;;;;;;;;;7.25;7.25;;;;;23.27;63.05;101687.59;4969914;28;49445;-74
2022/10/28 13:07:33;;;;;;;;;11.25;8.25;;;;;23.67;62.56;101735.16;4937131;28;49789;-74
2022/10/28 13:10:14;;;;;;;;;8.50;8.50;;;;;23.19;62.80;101643.97;4950934;28;50398;-75
2022/10/28 13:13:06;;;;;;;;;9.25;7.50;;;;;23.80;62.60;101751.88;4931840;28;49812;-74
2022/10/28 13:15:56;;;;;;;;;7.75;7.75;;;;;23.80;62.64;101725.06;4917414;28;50234;-76
2022/10/28 13:18:47;;;;;;;;;11.00;8.25;;;;;23.90;61.78;101734.72;4940710;28;49758;-76
2022/10/28 13:21:30;;;;;;;;;10.00;8.25;;;;;23.94;62.12;101728.41;4955152;28;49668;-75
2022/10/28 13:24:13;;;;;;;;;9.00;7.50;;;;;24.00;62.15;101728.25;4958353;28;49629;-75
2022/10/28 13:26:41;;;;;;;;;9.00;7.25;;;;;23.46;62.04;101639.03;4952229;28;49786;-74
2022/10/28 13:29:20;;;;;;;;;9.50;9.25;;;;;24.11;61.75;101714.63;4952345;28;49915;-74
2022/10/28 13:31:47;;;;;;;;;9.75;8.75;;;;;24.13;62.21;101710.16;4940519;28;50436;-75
2022/10/28 13:34:16;;;;;;;;;13.00;11.75;;;;;24.06;61.74;101695.97;4954412;28;49884;-75
2022/10/28 13:36:45;;;;;;;;;7.25;7.25;;;;;24.20;61.44;101728.75;4955011;28;49915;-74
2022/10/28 13:39:37;;;;;;;;;9.25;9.25;;;;;24.01;61.57;101673.69;4936270;28;50031;-75
2022/10/28 13:42:11;;;;;;;;;7.75;6.75;;;;;24.33;62.04;101732.13;4946957;28;49762;-75
2022/10/28 13:44:47;;;;;;;;;9.50;8.25;;;;;23.39;61.82;101581.97;4947938;28;49546;-75
2022/10/28 13:47:15;;;;;;;;;4.75;4.75;;;;;24.32;61.93;101733.03;4950408;28;49564;-76
2022/10/28 13:50:10;;;;;;;;;10.00;6.00;;;;;24.32;61.67;101738.41;4948854;28;49641;-77
2022/10/28 13:52:44;;;;;;;;;12.25;8.50;;;;;23.53;61.13;101592.41;4919719;28;51808;-77
2022/10/28 13:55:12;;;;;;;;;7.75;4.75;;;;;24.38;61.33;101735.56;4961187;28;49655;-76
2022/10/28 13:57:42;;;;;;;;;8.50;8.00;;;;;23.93;61.21;101672.97;4954401;28;49703;-74
2022/10/28 14:00:16;;;;;;;;;8.50;5.50;;;;;24.44;60.82;101740.81;4935932;28;50414;-74
2022/10/28 14:03:04;;;;;;;;;9.50;8.50;;;;;24.31;61.54;101733.91;4958369;28;49561;-75
2022/10/28 14:05:36;;;;;;;;;6.25;5.25;;;;;24.32;61.73;101748.22;4949104;28;49480;-74
2022/10/28 14:08:05;;;;;;;;;9.00;7.50;;;;;23.79;61.22;101673.25;4939622;28;49724;-74
2022/10/28 14:10:37;;;;;;;;;6.25;5.50;;;;;24.05;61.40;101707.59;4953540;28;49800;-75
2022/10/28 14:13:19;;;;;;;;;7.50;7.50;;;;;24.19;61.52;101737.72;4936972;28;50409;-73
2022/10/28 14:15:46;;;;;;;;;7.25;7.00;;;;;24.18;61.82;101737.75;4937411;28;49838;-76
2022/10/28 14:18:12;;;;;;;;;8.50;8.50;;;;;24.18;62.34;101732.38;4949844;28;49997;-73
2022/10/28 14:20:53;;;;;;;;;6.50;6.25;;;;;23.64;62.21;101633.31;4951278;28;49650;-76
2022/10/28 14:23:19;;;;;;;;;7.00;7.00;;;;;24.29;61.94;101738.41;4949616;28;50359;-74
2022/10/28 14:25:53;;;;;;;;;7.75;5.00;;;;;24.29;61.80;101741.09;4933876;28;50198;-76
2022/10/28 14:28:30;;;;;;;;;8.50;7.25;;;;;24.31;62.10;101733.00;4946891;28;49453;-76
2022/10/28 14:33:38;;;;;;;;;7.50;6.75;;;;;24.09;61.72;101713.78;4952956;28;49768;-81
2022/10/28 14:36:18;;;;;;;;;6.50;6.50;;;;;23.56;61.61;101643.31;4951710;28;49805;-79
2022/10/28 14:39:06;;;;;;;;;8.50;5.50;;;;;23.81;61.68;101687.50;4951741;28;49850;-77
2022/10/28 14:42:08;;;;;;;;;7.75;5.00;;;;;24.08;61.86;101736.16;4951791;28;49534;-77
2022/10/28 14:45:01;;;;;;;;;7.25;5.25;;;;;24.01;61.72;101729.13;4951098;28;50648;-79
2022/10/28 14:48:14;;;;;;;;;4.00;4.00;;;;;23.97;62.54;101726.53;4932958;28;49771;-84
2022/10/28 14:50:46;;;;;;;;;6.50;6.50;;;;;23.95;62.09;101733.72;4930230;28;50123;-82
2022/10/28 14:53:33;;;;;;;;;8.50;7.00;;;;;23.87;62.48;101729.41;4958191;28;49968;-72
2022/10/28 14:56:08;;;;;;;;;5.25;5.25;;;;;23.78;62.59;101706.34;4934094;28;49649;-73
2022/10/28 14:58:38;;;;;;;;;6.25;6.25;;;;;23.91;63.02;101733.78;4942475;28;50477;-72
2022/10/28 15:01:15;;;;;;;;;3.50;3.50;;;;;23.91;63.06;101734.69;4955647;28;49390;-74
2022/10/28 15:03:42;;;;;;;;;10.00;5.50;;;;;22.84;62.82;101548.16;4959969;28;49404;-72
2022/10/28 15:06:26;;;;;;;;;5.00;5.00;;;;;23.95;62.40;101736.41;4941189;28;51852;-73
2022/10/28 15:08:53;;;;;;;;;4.25;3.00;;;;;23.90;62.31;101732.91;4952786;28;49712;-73
2022/10/28 15:11:19;;;;;;;;;3.50;3.50;;;;;23.78;62.45;101708.13;4957060;28;49740;-73
2022/10/28 15:13:52;;;;;;;;;5.00;4.75;;;;;23.48;63.07;101672.91;4954047;28;49645;-74
2022/10/28 15:16:24;;;;;;;;;6.25;4.25;;;;;23.75;61.87;101724.28;4943911;28;51850;-78
2022/10/28 15:18:52;;;;;;;;;6.75;5.75;;;;;23.79;62.31;101761.72;4951294;28;49570;-74
2022/10/28 15:21:20;;;;;;;;;3.75;3.75;;;;;23.75;62.43;101748.41;4944029;28;49815;-80
2022/10/28 15:23:58;;;;;;;;;7.25;5.25;;;;;22.94;62.34;101615.81;4954561;28;49762;-79
2022/10/28 15:26:23;;;;;;;;;4.25;3.50;;;;;23.65;62.27;101745.03;4940780;28;49807;-82
2022/10/28 15:28:49;;;;;;;;;4.75;3.50;;;;;23.48;62.60;101734.56;4952841;28;60105;-73
2022/10/28 15:31:15;;;;;;;;;3.50;3.50;;;;;23.59;62.82;101758.53;4944067;28;49982;-73
2022/10/28 15:33:42;;;;;;;;;3.75;3.75;;;;;22.12;62.46;101511.84;4946840;28;49510;-73
2022/10/28 15:36:25;;;;;;;;;4.00;3.75;;;;;23.51;62.86;101757.72;4948265;28;50138;-75
2022/10/28 15:38:57;;;;;;;;;4.75;3.75;;;;;23.47;62.25;101761.38;4949860;28;49661;-84
2022/10/28 15:41:22;;;;;;;;;4.00;3.25;;;;;23.45;62.73;101757.81;4942078;28;49807;-75
2022/10/28 15:43:55;;;;;;;;;4.75;4.25;;;;;23.45;62.93;101757.81;4947439;28;49997;-74
2022/10/28 15:46:26;;;;;;;;;7.00;6.25;;;;;23.32;63.36;101738.38;4939480;28;51434;-87
2022/10/28 15:48:53;;;;;;;;;4.00;4.00;;;;;23.17;64.12;101744.91;4942560;28;49684;-77
2022/10/28 15:51:19;;;;;;;;;6.00;6.00;;;;;23.38;64.17;101763.31;4941865;28;49795;-76
2022/10/28 15:53:46;;;;;;;;;8.50;5.00;;;;;23.33;64.70;101761.59;4947576;28;49905;-75
2022/10/28 15:56:21;;;;;;;;;5.00;5.00;;;;;23.28;65.15;101764.34;4934305;28;49894;-75
2022/10/28 15:59:24;;;;;;;;;6.25;4.75;;;;;23.13;65.14;101759.22;4932218;28;50041;-76
2022/10/28 16:01:54;;;;;;;;;8.75;5.25;;;;;22.11;64.49;101584.06;4917193;28;50042;-79
2022/10/28 16:04:22;;;;;;;;;6.00;5.00;;;;;22.91;64.70;101725.66;4929980;28;49884;-78
2022/10/28 16:06:50;;;;;;;;;3.75;3.75;;;;;22.96;64.84;101750.56;4914639;28;50811;-79
2022/10/28 16:09:41;;;;;;;;;3.75;3.00;;;;;22.89;65.29;101756.94;4916713;28;49875;-78
2022/10/28 16:12:14;;;;;;;;;3.50;3.00;;;;;22.82;65.56;101761.44;4930561;28;49926;-81
2022/10/28 16:14:42;;;;;;;;;4.00;3.75;;;;;22.71;65.86;101756.25;4917693;28;49784;-78
2022/10/28 16:17:17;;;;;;;;;3.75;3.75;;;;;22.88;66.27;101796.22;4928066;28;50241;-79
2022/10/28 16:19:52;;;;;;;;;3.25;3.25;;;;;22.83;66.65;101806.94;4917793;28;49918;-79
2022/10/28 16:22:18;;;;;;;;;4.25;4.00;;;;;22.82;66.70;101801.59;4919347;28;49685;-77
2022/10/28 16:24:44;;;;;;;;;4.25;3.75;;;;;22.57;67.15;101764.44;4926366;28;50001;-78
2022/10/28 16:27:19;;;;;;;;;5.00;5.00;;;;;22.73;67.66;101813.31;4930721;28;49952;-80
2022/10/28 16:29:44;;;;;;;;;5.00;5.00;;;;;22.38;67.82;101760.22;4921594;28;49879;-79
2022/10/28 16:32:11;;;;;;;;;4.25;4.25;;;;;22.67;67.99;101810.69;4915043;28;49819;-77
2022/10/28 16:34:36;;;;;;;;;5.00;5.00;;;;;22.63;67.94;101826.81;4919027;28;50031;-77
2022/10/28 16:37:01;;;;;;;;;3.25;2.25;;;;;22.33;68.49;101777.25;4917499;28;51818;-79
2022/10/28 16:39:27;;;;;;;;;1.75;1.75;;;;;22.37;68.40;101793.22;4926455;28;50400;-79
2022/10/28 16:41:55;;;;;;;;;3.75;3.75;;;;;21.92;68.54;101731.31;4928335;28;49806;-76
2022/10/28 16:44:27;;;;;;;;;2.75;2.75;;;;;22.40;69.14;101833.34;4927360;28;49773;-77
2022/10/28 16:46:52;;;;;;;;;7.75;4.75;;;;;22.37;69.44;101819.97;4924100;28;50674;-76
2022/10/28 16:49:17;;;;;;;;;8.00;5.25;;;;;22.31;69.54;101817.41;4925221;28;49751;-75
2022/10/28 16:51:43;;;;;;;;;4.75;3.50;;;;;22.27;69.69;101813.84;4918836;28;49667;-78
2022/10/28 16:54:09;;;;;;;;;6.50;4.00;;;;;21.65;70.36;101719.09;4915895;28;49895;-79
2022/10/28 16:56:35;;;;;;;;;2.50;2.50;;;;;21.80;70.32;101765.28;4915319;28;50808;-77
2022/10/28 16:59:00;;;;;;;;;4.25;4.25;;;;;22.11;70.92;101833.66;4918468;28;49807;-76
2022/10/28 17:01:25;;;;;;;;;4.50;3.50;;;;;22.06;71.17;101840.78;4929086;28;49704;-75
2022/10/28 17:03:50;;;;;;;;;5.75;5.75;;;;;21.44;71.52;101735.34;4935251;28;59952;-74
2022/10/28 17:06:16;;;;;;;;;5.00;4.75;;;;;21.97;72.00;101835.50;4941768;28;64712;-74
2022/10/28 17:08:41;;;;;;;;;6.00;5.00;;;;;21.70;72.49;101804.56;4953135;28;49781;-78
2022/10/28 17:11:12;;;;;;;;;5.50;5.00;;;;;21.60;72.70;101806.44;4935528;28;50058;-76
2022/10/28 17:13:38;;;;;;;;;3.75;3.75;;;;;21.47;73.24;101795.88;4940278;28;49701;-78
2022/10/28 17:16:04;;;;;;;;;6.25;5.75;;;;;20.73;73.42;101683.31;4940161;28;49984;-78
2022/10/28 17:18:29;;;;;;;;;8.50;6.00;;;;;21.73;74.09;101857.13;4933759;28;49736;-80
2022/10/28 17:21:02;;;;;;;;;7.75;6.25;;;;;21.68;74.53;101855.34;4917152;28;50023;-81
2022/10/28 17:23:28;;;;;;;;;8.25;6.50;;;;;21.65;75.02;101846.50;4944369;28;49895;-77
2022/10/28 17:25:58;;;;;;;;;8.25;6.75;;;;;21.61;75.31;101852.75;4940835;28;50654;-74
2022/10/28 17:28:23;;;;;;;;;8.75;8.50;;;;;21.57;75.67;101857.22;4955931;28;49697;-74
2022/10/28 17:30:48;;;;;;;;;6.75;6.75;;;;;21.55;75.76;101853.69;4942044;28;49979;-75
2022/10/28 17:33:14;;;;;;;;;7.75;5.75;;;;;21.54;75.95;101864.41;4939930;28;59721;-74
2022/10/28 17:35:39;;;;;;;;;6.00;6.00;;;;;21.52;76.53;101868.84;4933920;28;51396;-74
2022/10/28 17:38:04;;;;;;;;;6.75;5.25;;;;;21.49;76.94;101863.53;4940103;28;50372;-76
2022/10/28 17:40:30;;;;;;;;;7.50;7.00;;;;;21.47;77.01;101857.31;4956708;28;51444;-77
2022/10/28 17:42:59;;;;;;;;;6.00;6.00;;;;;21.47;77.15;101860.88;4949262;28;49916;-72
2022/10/28 17:45:24;;;;;;;;;9.25;7.75;;;;;21.45;77.13;101864.44;4940437;28;49768;-75
2022/10/28 17:47:50;;;;;;;;;7.25;6.25;;;;;21.36;77.37;101865.41;4949904;28;49871;-72
2022/10/28 17:50:15;;;;;;;;;6.75;6.50;;;;;21.23;78.04;101852.97;4930422;28;50054;-71
2022/10/28 17:52:41;;;;;;;;;7.00;7.00;;;;;21.19;78.04;101856.56;4952214;28;49807;-71
2022/10/28 17:55:07;;;;;;;;;9.50;8.50;;;;;21.13;78.61;101842.38;4947201;28;63094;-76
2022/10/28 17:57:32;;;;;;;;;7.50;7.25;;;;;20.95;78.57;101825.56;4941757;28;49744;-74
2022/10/28 17:59:59;;;;;;;;;9.50;7.50;;;;;21.01;78.70;101846.84;4923574;28;50109;-78
2022/10/28 18:02:25;;;;;;;;;9.50;7.25;;;;;20.61;78.44;101758.09;4936684;28;50193;-76
2022/10/28 18:04:50;;;;;;;;;10.00;8.50;;;;;20.72;78.66;101778.50;4945016;28;49815;-77
2022/10/28 18:07:15;;;;;;;;;6.25;6.25;;;;;20.43;79.18;101749.28;4938040;28;50581;-75
2022/10/28 18:09:41;;;;;;;;;11.00;9.50;;;;;20.23;79.26;101722.66;4941118;28;49959;-73
2022/10/28 18:12:07;;;;;;;;;10.00;10.00;;;;;20.63;79.72;101770.53;4941133;28;49840;-71
2022/10/28 18:14:33;;;;;;;;;8.75;8.00;;;;;21.03;80.18;101848.63;4939504;28;50638;-79
2022/10/28 18:16:58;;;;;;;;;9.00;9.00;;;;;20.90;80.19;101841.56;4935088;28;49725;-80
2022/10/28 18:19:24;;;;;;;;;8.50;8.50;;;;;19.75;80.25;101666.84;4930665;28;49749;-75
2022/10/28 18:21:49;;;;;;;;;12.50;10.50;;;;;20.82;80.35;101822.03;4953089;28;50031;-75
2022/10/28 18:24:14;;;;;;;;;7.25;7.25;;;;;20.00;80.10;101703.22;4934350;28;50559;-74
2022/10/28 18:26:40;;;;;;;;;11.00;9.00;;;;;20.66;80.16;101789.22;4933169;28;49798;-79
2022/10/28 18:29:08;;;;;;;;;11.75;9.50;;;;;20.73;80.29;101827.41;4934377;28;49872;-73
2022/10/28 18:31:36;;;;;;;;;10.50;10.50;;;;;20.81;80.62;101847.84;4943222;28;50357;-72
2022/10/28 18:34:02;;;;;;;;;9.25;9.25;;;;;20.62;80.62;101839.91;4949699;28;49816;-79
2022/10/28 18:36:32;;;;;;;;;9.00;8.00;;;;;20.21;80.61;101761.78;4930127;28;49795;-78
2022/10/28 18:38:58;;;;;;;;;13.50;8.75;;;;;20.90;81.00;101878.94;4940706;28;49801;-71
2022/10/28 18:41:26;;;;;;;;;13.00;9.25;;;;;20.62;81.09;101851.47;4933395;28;49728;-72
2022/10/28 18:43:53;;;;;;;;;11.50;9.75;;;;;20.83;81.36;101874.50;4946825;28;49998;-73
2022/10/28 18:46:18;;;;;;;;;9.75;9.50;;;;;20.43;81.53;101829.28;4947814;28;49717;-73
2022/10/28 18:48:44;;;;;;;;;10.25;9.25;;;;;20.37;81.59;101799.06;4939762;28;49893;-71
2022/10/28 18:51:11;;;;;;;;;12.00;11.75;;;;;20.60;82.03;101847.03;4915832;28;49681;-71